createdAt,value
2022-10-09T00:00:49.903Z,24.33
2022-10-09T00:03:18.158Z,22.25
2022-10-09T00:05:45.527Z,24.80
2022-10-09T00:08:12.740Z,26.10
2022-10-09T00:10:43.569Z,24.55
2022-10-09T00:13:11.118Z,30.90
2022-10-09T00:15:39.997Z,26.15
2022-10-09T00:18:08.103Z,24.20
2022-10-09T00:20:43.883Z,23.45
2022-10-09T00:23:12.016Z,23.35
2022-10-09T00:25:39.360Z,22.60
2022-10-09T00:28:06.604Z,21.05
2022-10-09T00:30:33.481Z,23.83
2022-10-09T00:33:00.252Z,23.48
2022-10-09T00:35:27.028Z,29.02
2022-10-09T00:37:53.936Z,27.13
2022-10-09T00:40:20.756Z,26.60
2022-10-09T00:42:49.130Z,24.58
2022-10-09T00:45:21.628Z,25.08
2022-10-09T00:47:51.629Z,25.13
2022-10-09T00:50:28.804Z,24.23
2022-10-09T00:53:00.103Z,24.98
2022-10-09T00:55:28.858Z,25.15
2022-10-09T00:57:59.329Z,25.50
2022-10-09T01:00:27.588Z,21.02
2022-10-09T01:02:55.185Z,24.53
2022-10-09T01:05:54.501Z,20.83
2022-10-09T01:08:30.863Z,22.45
2022-10-09T01:11:06.574Z,15.43
2022-10-09T01:13:45.394Z,22.00
2022-10-09T01:16:29.441Z,17.50
2022-10-09T01:19:43.881Z,20.80
2022-10-09T01:22:30.607Z,18.20
2022-10-09T01:25:06.981Z,18.00
2022-10-09T01:27:35.854Z,14.70
2022-10-09T01:30:08.301Z,17.43
2022-10-09T01:32:38.568Z,16.63
2022-10-09T01:35:07.640Z,15.57
2022-10-09T01:37:36.982Z,19.83
2022-10-09T01:40:05.915Z,21.90
2022-10-09T01:42:33.116Z,21.90
2022-10-09T01:44:59.852Z,16.90
2022-10-09T01:47:27.064Z,15.80
2022-10-09T01:50:21.775Z,16.92
2022-10-09T01:52:53.389Z,17.65
2022-10-09T01:55:35.315Z,10.30
2022-10-09T01:58:20.391Z,9.05
2022-10-09T02:01:03.072Z,11.57
2022-10-09T02:03:31.603Z,11.27
2022-10-09T02:06:01.407Z,10.35
2022-10-09T02:08:30.663Z,11.20
2022-10-09T02:11:01.618Z,11.10
2022-10-09T02:13:29.728Z,10.98
2022-10-09T02:16:25.417Z,9.35
2022-10-09T02:19:11.018Z,13.52
2022-10-09T02:21:46.169Z,9.90
2022-10-09T02:24:19.780Z,10.63
2022-10-09T02:26:46.723Z,9.25
2022-10-09T02:29:15.047Z,8.38
2022-10-09T02:31:44.717Z,8.90
2022-10-09T02:34:16.717Z,12.67
2022-10-09T02:36:43.987Z,7.78
2022-10-09T02:39:10.804Z,9.38
2022-10-09T02:41:38.120Z,11.90
2022-10-09T02:44:06.116Z,8.02
2022-10-09T02:46:33.556Z,9.20
2022-10-09T02:49:00.384Z,8.90
2022-10-09T02:51:27.298Z,10.95
2022-10-09T02:53:55.134Z,7.38
2022-10-09T02:56:23.474Z,11.30
2022-10-09T02:58:50.193Z,11.03
2022-10-09T03:01:17.684Z,10.95
2022-10-09T03:03:45.098Z,9.20
2022-10-09T03:06:24.181Z,10.30
2022-10-09T03:08:52.644Z,7.55
2022-10-09T03:11:21.487Z,11.50
2022-10-09T03:13:48.428Z,7.50
2022-10-09T03:16:21.150Z,6.13
2022-10-09T03:18:48.506Z,6.35
2022-10-09T03:21:21.525Z,11.55
2022-10-09T03:23:48.938Z,8.73
2022-10-09T03:26:18.334Z,9.25
2022-10-09T03:28:48.967Z,7.63
2022-10-09T03:31:39.311Z,9.90
2022-10-09T03:34:04.882Z,9.10
2022-10-09T03:36:31.935Z,9.67
2022-10-09T03:38:58.697Z,9.05
2022-10-09T03:41:25.571Z,11.23
2022-10-09T03:43:52.628Z,8.70
2022-10-09T03:46:19.614Z,9.95
2022-10-09T03:48:46.473Z,10.03
2022-10-09T03:51:13.314Z,7.88
2022-10-09T03:53:40.215Z,11.73
2022-10-09T03:56:07.167Z,10.73
2022-10-09T03:58:33.898Z,11.57
2022-10-09T04:01:00.737Z,11.03
2022-10-09T04:03:27.646Z,13.55
2022-10-09T04:05:54.645Z,9.38
2022-10-09T04:08:21.532Z,10.32
2022-10-09T04:10:48.307Z,8.07
2022-10-09T04:13:15.115Z,11.00
2022-10-09T04:15:50.094Z,9.82
2022-10-09T04:18:17.076Z,8.82
2022-10-09T04:20:52.071Z,9.55
2022-10-09T04:23:23.707Z,8.60
2022-10-09T04:26:01.168Z,9.60
2022-10-09T04:28:29.635Z,9.80
2022-10-09T04:30:57.581Z,13.35
2022-10-09T04:33:25.503Z,10.93
2022-10-09T04:35:54.197Z,11.63
2022-10-09T04:38:21.774Z,13.50
2022-10-09T04:41:02.190Z,7.85
2022-10-09T04:43:29.591Z,9.90
2022-10-09T04:45:56.618Z,8.73
2022-10-09T04:48:24.302Z,12.52
2022-10-09T04:50:51.300Z,9.10
2022-10-09T04:53:18.066Z,7.88
2022-10-09T04:55:45.612Z,9.63
2022-10-09T04:58:13.614Z,8.77
2022-10-09T05:00:45.205Z,9.65
2022-10-09T05:03:12.567Z,6.53
2022-10-09T05:05:39.591Z,6.70
2022-10-09T05:08:06.600Z,6.68
2022-10-09T05:10:33.533Z,9.20
2022-10-09T05:13:00.396Z,11.10
2022-10-09T05:15:27.237Z,6.80
2022-10-09T05:17:54.046Z,11.90
2022-10-09T05:20:21.049Z,9.98
2022-10-09T05:22:48.441Z,9.98
2022-10-09T05:25:15.607Z,11.93
2022-10-09T05:27:42.568Z,10.50
2022-10-09T05:30:09.918Z,12.20
2022-10-09T05:32:36.838Z,7.28
2022-10-09T05:35:04.445Z,8.60
2022-10-09T05:37:31.333Z,8.70
2022-10-09T05:39:58.214Z,8.40
2022-10-09T05:42:24.985Z,9.32
2022-10-09T05:44:51.813Z,9.15
2022-10-09T05:47:19.797Z,8.98
2022-10-09T05:49:46.949Z,7.50
2022-10-09T05:52:13.700Z,9.30
2022-10-09T05:54:41.973Z,7.50
2022-10-09T05:57:09.406Z,10.90
2022-10-09T05:59:36.231Z,10.30
2022-10-09T06:02:03.293Z,8.07
2022-10-09T06:04:30.275Z,8.83
2022-10-09T06:06:57.121Z,7.55
2022-10-09T06:09:25.509Z,9.73
2022-10-09T06:11:53.933Z,8.45
2022-10-09T06:14:24.501Z,11.38
2022-10-09T06:16:51.728Z,9.67
2022-10-09T06:19:20.012Z,10.35
2022-10-09T06:21:47.364Z,9.15
2022-10-09T06:24:27.241Z,11.40
2022-10-09T06:26:55.263Z,10.05
2022-10-09T06:29:22.183Z,8.60
2022-10-09T06:31:49.236Z,8.63
2022-10-09T06:34:16.111Z,10.85
2022-10-09T06:36:43.209Z,7.32
2022-10-09T06:39:10.527Z,8.63
2022-10-09T06:41:37.466Z,8.03
2022-10-09T06:44:22.496Z,13.68
2022-10-09T06:46:50.043Z,7.93
2022-10-09T06:49:17.236Z,9.75
2022-10-09T06:51:44.033Z,9.55
2022-10-09T06:54:15.171Z,10.07
2022-10-09T06:56:41.947Z,8.13
2022-10-09T06:59:11.077Z,10.32
2022-10-09T07:01:38.364Z,12.52
2022-10-09T07:04:09.456Z,9.05
2022-10-09T07:06:41.975Z,8.50
2022-10-09T07:09:12.184Z,11.93
2022-10-09T07:11:49.011Z,11.20
2022-10-09T07:14:16.180Z,7.53
2022-10-09T07:16:46.082Z,9.40
2022-10-09T07:19:14.017Z,9.70
2022-10-09T07:21:42.986Z,9.50
2022-10-09T07:24:10.107Z,9.13
2022-10-09T07:26:40.563Z,10.82
2022-10-09T07:29:09.614Z,7.80
2022-10-09T07:31:37.120Z,8.43
2022-10-09T07:34:04.086Z,7.53
2022-10-09T07:36:30.810Z,8.35
2022-10-09T07:38:58.709Z,6.95
2022-10-09T07:41:27.466Z,9.77
2022-10-09T07:43:54.761Z,7.50
2022-10-09T07:46:23.192Z,8.52
2022-10-09T07:48:50.967Z,8.02
2022-10-09T07:51:28.993Z,8.50
2022-10-09T07:53:57.339Z,7.78
2022-10-09T07:56:26.695Z,11.53
2022-10-09T07:58:56.136Z,8.65
2022-10-09T08:01:24.442Z,10.52
2022-10-09T08:03:51.502Z,9.48
2022-10-09T08:06:18.963Z,9.45
2022-10-09T08:08:49.514Z,9.40
2022-10-09T08:11:17.614Z,8.50
2022-10-09T08:13:45.715Z,7.05
2022-10-09T08:16:13.725Z,6.82
2022-10-09T08:18:40.936Z,10.80
2022-10-09T08:21:18.907Z,10.33
2022-10-09T08:23:46.296Z,6.53
2022-10-09T08:26:19.704Z,6.57
2022-10-09T08:28:51.306Z,6.95
2022-10-09T08:31:18.286Z,6.00
2022-10-09T08:33:45.050Z,5.90
2022-10-09T08:36:16.997Z,5.70
2022-10-09T08:38:48.188Z,6.80
2022-10-09T08:41:33.002Z,7.88
2022-10-09T08:44:10.130Z,6.47
2022-10-09T08:46:52.052Z,5.77
2022-10-09T08:49:29.503Z,7.25
2022-10-09T08:52:01.191Z,8.13
2022-10-09T08:54:36.548Z,5.68
2022-10-09T08:57:10.023Z,6.95
2022-10-09T08:59:36.888Z,9.07
2022-10-09T09:02:31.236Z,4.47
2022-10-09T09:05:37.543Z,4.13
2022-10-09T09:08:39.166Z,5.70
2022-10-09T09:11:21.460Z,5.85
2022-10-09T09:14:19.822Z,6.90
2022-10-09T09:16:49.318Z,6.15
2022-10-09T09:20:00.461Z,4.50
2022-10-09T09:22:28.100Z,9.23
2022-10-09T09:24:57.447Z,4.13
2022-10-09T09:27:36.667Z,6.37
2022-10-09T09:30:12.583Z,5.22
2022-10-09T09:33:15.327Z,6.57
2022-10-09T09:35:56.862Z,5.05
2022-10-09T09:38:23.722Z,6.75
2022-10-09T09:40:50.941Z,4.13
2022-10-09T09:43:24.027Z,5.50
2022-10-09T09:45:56.242Z,5.13
2022-10-09T09:48:39.803Z,5.20
2022-10-09T09:51:33.140Z,7.55
2022-10-09T09:54:06.080Z,4.13
2022-10-09T09:57:07.008Z,5.47
2022-10-09T09:59:31.125Z,5.07
2022-10-09T10:02:21.188Z,4.90
2022-10-09T10:05:06.463Z,8.32
2022-10-09T10:07:38.806Z,8.80
2022-10-09T10:10:25.981Z,5.47
2022-10-09T10:12:53.097Z,4.30
2022-10-09T10:15:33.954Z,4.25
2022-10-09T10:18:03.517Z,3.38
2022-10-09T10:20:32.666Z,3.53
2022-10-09T10:23:00.955Z,4.82
2022-10-09T10:25:33.543Z,6.80
2022-10-09T10:28:17.749Z,5.68
2022-10-09T10:30:44.673Z,4.10
2022-10-09T10:33:19.695Z,2.83
2022-10-09T10:35:51.192Z,4.55
2022-10-09T10:38:26.706Z,5.57
2022-10-09T10:41:19.479Z,3.65
2022-10-09T10:43:53.592Z,6.95
2022-10-09T10:46:37.283Z,3.73
2022-10-09T10:49:04.611Z,5.63
2022-10-09T10:51:50.311Z,3.70
2022-10-09T10:54:39.867Z,3.30
2022-10-09T10:57:12.557Z,17.17
2022-10-09T11:00:06.474Z,4.00
2022-10-09T11:02:42.329Z,6.57
2022-10-09T11:05:27.067Z,5.55
2022-10-09T11:08:00.072Z,3.88
2022-10-09T11:10:54.584Z,5.82
2022-10-09T11:13:32.415Z,5.33
2022-10-09T11:16:17.106Z,5.03
2022-10-09T11:19:09.905Z,2.53
2022-10-09T11:21:54.603Z,3.17
2022-10-09T11:24:50.524Z,4.07
2022-10-09T11:27:32.179Z,4.13
2022-10-09T11:30:10.212Z,7.82
2022-10-09T11:32:52.798Z,2.80
2022-10-09T11:35:26.944Z,4.20
2022-10-09T11:38:14.214Z,3.65
2022-10-09T11:40:43.493Z,3.60
2022-10-09T11:43:25.075Z,5.13
2022-10-09T11:46:18.814Z,3.00
2022-10-09T11:49:10.462Z,4.45
2022-10-09T11:51:49.234Z,4.68
2022-10-09T11:54:18.751Z,2.83
2022-10-09T11:56:56.960Z,2.78
2022-10-09T11:59:30.197Z,4.22
2022-10-09T12:01:59.440Z,4.57
2022-10-09T12:07:36.120Z,2.80
2022-10-09T12:10:07.280Z,4.05
2022-10-09T12:12:37.767Z,3.97
2022-10-09T12:15:26.608Z,5.05
2022-10-09T12:17:53.700Z,6.07
2022-10-09T12:20:23.459Z,2.57
2022-10-09T12:23:24.646Z,3.65
2022-10-09T12:25:45.586Z,3.90
2022-10-09T12:28:30.144Z,3.22
2022-10-09T12:31:00.380Z,4.97
2022-10-09T12:33:43.579Z,3.77
2022-10-09T12:36:14.728Z,3.22
2022-10-09T12:38:42.596Z,3.60
2022-10-09T12:41:21.318Z,4.75
2022-10-09T12:43:53.051Z,8.15
2022-10-09T12:46:46.019Z,5.47
2022-10-09T12:49:21.563Z,3.47
2022-10-09T12:51:56.273Z,5.10
2022-10-09T12:54:25.308Z,3.95
2022-10-09T12:56:53.442Z,5.22
2022-10-09T12:59:22.638Z,2.97
2022-10-09T13:01:52.429Z,3.85
2022-10-09T13:04:32.468Z,4.40
2022-10-09T13:07:29.879Z,3.00
2022-10-09T13:10:02.961Z,5.70
2022-10-09T13:12:31.022Z,6.33
2022-10-09T13:14:59.103Z,5.70
2022-10-09T13:20:23.938Z,5.13
2022-10-09T13:23:02.885Z,3.03
2022-10-09T13:25:38.830Z,6.03
2022-10-09T13:28:06.390Z,4.22
2022-10-09T13:30:33.664Z,3.53
2022-10-09T13:33:00.577Z,3.95
2022-10-09T13:35:27.446Z,4.15
2022-10-09T13:37:54.226Z,3.47
2022-10-09T13:40:21.997Z,2.15
2022-10-09T13:42:56.027Z,6.45
2022-10-09T13:45:23.152Z,3.88
2022-10-09T13:47:50.262Z,4.00
2022-10-09T13:50:17.943Z,4.93
2022-10-09T13:52:44.754Z,3.80
2022-10-09T13:55:11.880Z,3.95
2022-10-09T13:57:38.865Z,5.00
2022-10-09T14:00:07.115Z,2.95
2022-10-09T14:02:38.869Z,2.50
2022-10-09T14:05:06.095Z,5.25
2022-10-09T14:07:32.829Z,2.58
2022-10-09T14:09:59.633Z,3.35
2022-10-09T14:12:26.413Z,4.63
2022-10-09T14:14:53.946Z,3.80
2022-10-09T14:17:20.710Z,5.72
2022-10-09T14:19:48.148Z,3.72
2022-10-09T14:22:15.554Z,3.80
2022-10-09T14:24:43.195Z,5.15
2022-10-09T14:27:10.091Z,5.00
2022-10-09T14:29:38.166Z,3.40
2022-10-09T14:32:05.898Z,4.03
2022-10-09T14:34:33.695Z,2.67
2022-10-09T14:37:00.470Z,6.03
2022-10-09T14:39:27.165Z,2.60
2022-10-09T14:41:54.044Z,3.30
2022-10-09T14:44:20.788Z,2.90
2022-10-09T14:46:47.511Z,4.95
2022-10-09T14:49:14.301Z,5.38
2022-10-09T14:51:41.773Z,3.67
2022-10-09T14:54:10.790Z,3.08
2022-10-09T14:56:37.746Z,5.22
2022-10-09T14:59:06.069Z,2.50
2022-10-09T15:01:33.854Z,3.70
2022-10-09T15:04:01.091Z,4.73
2022-10-09T15:06:28.278Z,3.17
2022-10-09T15:09:03.205Z,2.85
2022-10-09T15:11:33.558Z,3.38
2022-10-09T15:14:00.325Z,2.25
2022-10-09T15:16:27.176Z,5.10
2022-10-09T15:18:55.818Z,5.82
2022-10-09T15:21:25.706Z,3.97
2022-10-09T15:23:57.444Z,2.85
2022-10-09T15:26:25.746Z,3.85
2022-10-09T15:28:52.970Z,4.50
2022-10-09T15:31:31.319Z,5.18
2022-10-09T15:34:01.059Z,5.22
2022-10-09T15:36:29.614Z,6.20
2022-10-09T15:38:57.117Z,4.43
2022-10-09T15:41:27.361Z,6.00
2022-10-09T15:44:00.093Z,2.88
2022-10-09T15:46:27.940Z,4.90
2022-10-09T15:48:55.192Z,4.55
2022-10-09T15:51:22.802Z,5.90
2022-10-09T15:53:50.979Z,3.80
2022-10-09T15:56:21.382Z,4.53
2022-10-09T15:58:48.879Z,3.70
2022-10-09T16:01:17.311Z,3.42
2022-10-09T16:03:45.192Z,3.65
2022-10-09T16:06:15.101Z,4.33
2022-10-09T16:08:42.537Z,4.70
2022-10-09T16:11:12.477Z,3.30
2022-10-09T16:13:42.965Z,7.00
2022-10-09T16:16:14.994Z,3.63
2022-10-09T16:18:44.785Z,4.27
2022-10-09T16:21:15.667Z,4.55
2022-10-09T16:23:44.000Z,5.03
2022-10-09T16:26:13.712Z,4.65
2022-10-09T16:28:40.950Z,3.08
2022-10-09T16:31:07.970Z,4.37
2022-10-09T16:33:34.779Z,6.28
2022-10-09T16:36:12.064Z,4.95
2022-10-09T16:38:39.755Z,4.57
2022-10-09T16:41:13.219Z,4.57
2022-10-09T16:43:40.100Z,5.60
2022-10-09T16:46:19.411Z,5.07
2022-10-09T16:48:47.471Z,4.53
2022-10-09T16:51:18.051Z,4.68
2022-10-09T16:53:45.088Z,4.30
2022-10-09T16:56:14.853Z,7.70
2022-10-09T16:58:43.310Z,4.63
2022-10-09T17:01:10.742Z,6.18
2022-10-09T17:03:40.649Z,11.55
2022-10-09T17:06:15.727Z,4.50
2022-10-09T17:08:42.453Z,8.50
2022-10-09T17:11:12.955Z,4.57
2022-10-09T17:13:40.181Z,4.18
2022-10-09T17:16:10.659Z,4.20
2022-10-09T17:18:39.636Z,4.15
2022-10-09T17:21:09.340Z,5.17
2022-10-09T17:23:36.583Z,5.07
2022-10-09T17:26:08.910Z,5.63
2022-10-09T17:28:36.066Z,4.38
2022-10-09T17:31:08.001Z,5.05
2022-10-09T17:33:41.131Z,6.80
2022-10-09T17:36:08.923Z,5.25
2022-10-09T17:38:36.210Z,4.40
2022-10-09T17:41:07.869Z,7.03
2022-10-09T17:43:34.728Z,5.50
2022-10-09T17:46:01.832Z,5.33
2022-10-09T17:48:29.799Z,5.78
2022-10-09T17:50:57.967Z,9.88
2022-10-09T17:53:25.667Z,9.38
2022-10-09T17:55:54.610Z,6.45
2022-10-09T17:58:23.460Z,5.30
2022-10-09T18:00:50.695Z,6.32
2022-10-09T18:03:17.988Z,5.10
2022-10-09T18:05:49.450Z,5.15
2022-10-09T18:08:18.488Z,6.57
2022-10-09T18:10:45.418Z,5.00
2022-10-09T18:13:12.177Z,8.65
2022-10-09T18:15:41.149Z,6.78
2022-10-09T18:18:08.962Z,5.60
2022-10-09T18:20:37.066Z,8.15
2022-10-09T18:23:04.602Z,6.33
2022-10-09T18:25:31.761Z,5.35
2022-10-09T18:27:58.591Z,7.00
2022-10-09T18:30:25.663Z,5.97
2022-10-09T18:32:52.723Z,5.10
2022-10-09T18:35:19.843Z,6.17
2022-10-09T18:37:46.615Z,4.93
2022-10-09T18:40:14.144Z,4.93
2022-10-09T18:42:40.996Z,5.93
2022-10-09T18:45:10.371Z,7.35
2022-10-09T18:47:37.326Z,9.80
2022-10-09T18:50:09.048Z,5.82
2022-10-09T18:52:37.492Z,7.18
2022-10-09T18:55:06.882Z,4.78
2022-10-09T18:57:34.302Z,7.47
2022-10-09T19:00:02.469Z,5.77
2022-10-09T19:02:29.687Z,4.18
2022-10-09T19:04:57.969Z,5.60
2022-10-09T19:07:25.331Z,5.32
2022-10-09T19:09:57.007Z,4.53
2022-10-09T19:12:25.014Z,5.07
2022-10-09T19:14:52.476Z,8.07
2022-10-09T19:17:20.272Z,4.57
2022-10-09T19:19:47.060Z,5.07
2022-10-09T19:22:16.412Z,4.25
2022-10-09T19:24:44.175Z,4.83
2022-10-09T19:27:11.297Z,5.70
2022-10-09T19:29:38.138Z,5.53
2022-10-09T19:32:05.066Z,5.93
2022-10-09T19:34:31.909Z,6.32
2022-10-09T19:36:58.704Z,4.73
2022-10-09T19:39:25.620Z,5.22
2022-10-09T19:41:52.521Z,7.10
2022-10-09T19:44:19.772Z,5.20
2022-10-09T19:46:46.816Z,4.05
2022-10-09T19:49:14.010Z,4.60
2022-10-09T19:51:40.961Z,6.95
2022-10-09T19:54:09.307Z,5.60
2022-10-09T19:56:37.102Z,5.90
2022-10-09T19:59:06.606Z,7.80
2022-10-09T20:01:35.920Z,5.23
2022-10-09T20:04:07.730Z,5.57
2022-10-09T20:06:37.770Z,6.13
2022-10-09T20:09:06.244Z,6.93
2022-10-09T20:11:34.696Z,8.45
2022-10-09T20:14:01.930Z,7.57
2022-10-09T20:16:32.044Z,8.20
2022-10-09T20:19:03.215Z,5.85
2022-10-09T20:21:32.563Z,6.72
2022-10-09T20:24:01.227Z,6.50
2022-10-09T20:26:28.451Z,6.90
2022-10-09T20:28:55.244Z,5.30
2022-10-09T20:31:25.795Z,6.70
2022-10-09T20:33:54.482Z,5.25
2022-10-09T20:36:31.188Z,6.20
2022-10-09T20:39:00.727Z,5.07
2022-10-09T20:41:30.176Z,6.28
2022-10-09T20:43:59.050Z,7.18
2022-10-09T20:46:28.291Z,6.43
2022-10-09T20:48:55.974Z,6.38
2022-10-09T20:51:23.940Z,6.23
2022-10-09T20:53:56.276Z,5.72
2022-10-09T20:56:24.575Z,5.15
2022-10-09T20:58:51.854Z,7.63
2022-10-09T21:01:19.094Z,6.50
2022-10-09T21:03:46.084Z,8.67
2022-10-09T21:06:15.559Z,7.68
2022-10-09T21:08:42.386Z,5.90
2022-10-09T21:11:11.510Z,6.50
2022-10-09T21:13:39.069Z,10.65
2022-10-09T21:16:10.709Z,7.10
2022-10-09T21:18:38.238Z,5.90
2022-10-09T21:21:08.526Z,5.45
2022-10-09T21:23:35.707Z,7.47
2022-10-09T21:26:02.833Z,6.43
2022-10-09T21:28:30.105Z,5.77
2022-10-09T21:30:56.979Z,7.00
2022-10-09T21:33:23.731Z,6.57
2022-10-09T21:35:55.228Z,5.75
2022-10-09T21:38:23.109Z,7.05
2022-10-09T21:40:50.396Z,7.47
2022-10-09T21:43:18.238Z,6.00
2022-10-09T21:45:48.704Z,7.72
2022-10-09T21:48:17.051Z,6.07
2022-10-09T21:50:44.796Z,5.50
2022-10-09T21:53:12.558Z,7.37
2022-10-09T21:55:40.713Z,6.25
2022-10-09T21:58:09.373Z,5.47
2022-10-09T22:00:36.729Z,8.65
2022-10-09T22:03:03.842Z,5.50
2022-10-09T22:05:30.574Z,4.30
2022-10-09T22:07:57.430Z,6.57
2022-10-09T22:10:24.291Z,5.63
2022-10-09T22:12:51.487Z,4.40
2022-10-09T22:15:18.487Z,5.03
2022-10-09T22:17:46.078Z,6.50
2022-10-09T22:20:13.146Z,8.23
2022-10-09T22:22:40.002Z,8.32
2022-10-09T22:25:07.344Z,7.47
2022-10-09T22:27:34.230Z,5.57
2022-10-09T22:30:01.034Z,6.90
2022-10-09T22:32:27.750Z,6.18
2022-10-09T22:34:54.555Z,7.57
2022-10-09T22:37:21.320Z,12.52
2022-10-09T22:39:49.474Z,9.23
2022-10-09T22:42:16.359Z,6.87
2022-10-09T22:44:43.170Z,7.65
2022-10-09T22:47:10.020Z,6.85
2022-10-09T22:49:36.836Z,6.30
2022-10-09T22:52:03.890Z,6.85
2022-10-09T22:54:30.586Z,7.50
2022-10-09T22:56:57.411Z,5.53
2022-10-09T22:59:24.263Z,9.48
2022-10-09T23:01:55.863Z,7.97
2022-10-09T23:04:24.007Z,5.03
2022-10-09T23:06:53.318Z,7.53
2022-10-09T23:09:21.983Z,5.35
2022-10-09T23:11:49.830Z,7.03
2022-10-09T23:14:16.697Z,6.90
2022-10-09T23:16:43.811Z,9.02
2022-10-09T23:19:10.863Z,11.77
2022-10-09T23:21:39.927Z,7.97
2022-10-09T23:24:08.033Z,6.15
2022-10-09T23:26:36.222Z,8.13
2022-10-09T23:29:06.451Z,6.13
2022-10-09T23:31:34.205Z,7.33
2022-10-09T23:34:02.875Z,5.97
2022-10-09T23:36:29.690Z,6.55
2022-10-09T23:38:57.818Z,6.88
2022-10-09T23:41:27.303Z,8.45
2022-10-09T23:43:55.241Z,7.00
2022-10-09T23:46:28.230Z,6.88
2022-10-09T23:48:55.835Z,7.68
2022-10-09T23:51:25.331Z,6.40
2022-10-09T23:53:52.686Z,8.82
2022-10-09T23:56:31.752Z,8.50
2022-10-09T23:59:00.259Z,11.57
